sensor_id;sensor_type;location;lat;lon;timestamp;P1;durP1;ratioP1;P2;durP2;ratioP2
76727;SDS011;65652;53.132;18.026;2023-05-29T00:00:52;6.00;;;2.30;;
76727;SDS011;65652;53.132;18.026;2023-05-29T00:03:25;6.30;;;2.50;;
76727;SDS011;65652;53.132;18.026;2023-05-29T00:05:52;5.70;;;2.20;;
76727;SDS011;65652;53.132;18.026;2023-05-29T00:08:19;6.10;;;2.00;;
76727;SDS011;65652;53.132;18.026;2023-05-29T00:10:46;7.30;;;2.10;;
76727;SDS011;65652;53.132;18.026;2023-05-29T00:13:13;5.50;;;2.10;;
76727;SDS011;65652;53.132;18.026;2023-05-29T00:15:39;6.80;;;2.30;;
76727;SDS011;65652;53.132;18.026;2023-05-29T00:18:06;5.30;;;1.80;;
76727;SDS011;65652;53.132;18.026;2023-05-29T00:20:33;6.10;;;2.10;;
76727;SDS011;65652;53.132;18.026;2023-05-29T00:23:01;5.50;;;2.10;;
76727;SDS011;65652;53.132;18.026;2023-05-29T00:25:32;6.20;;;1.90;;
76727;SDS011;65652;53.132;18.026;2023-05-29T00:27:59;5.40;;;2.10;;
76727;SDS011;65652;53.132;18.026;2023-05-29T00:30:26;6.80;;;2.10;;
76727;SDS011;65652;53.132;18.026;2023-05-29T00:32:52;5.90;;;2.10;;
76727;SDS011;65652;53.132;18.026;2023-05-29T00:35:20;6.10;;;2.30;;
76727;SDS011;65652;53.132;18.026;2023-05-29T00:37:47;6.00;;;2.10;;
76727;SDS011;65652;53.132;18.026;2023-05-29T00:40:14;5.60;;;2.00;;
76727;SDS011;65652;53.132;18.026;2023-05-29T00:42:41;5.90;;;2.10;;
76727;SDS011;65652;53.132;18.026;2023-05-29T00:45:08;6.30;;;2.60;;
76727;SDS011;65652;53.132;18.026;2023-05-29T00:47:35;6.50;;;2.60;;
76727;SDS011;65652;53.132;18.026;2023-05-29T00:50:02;6.30;;;2.60;;
76727;SDS011;65652;53.132;18.026;2023-05-29T00:52:30;6.80;;;2.60;;
76727;SDS011;65652;53.132;18.026;2023-05-29T00:54:57;8.10;;;3.00;;
76727;SDS011;65652;53.132;18.026;2023-05-29T00:57:24;7.90;;;2.60;;
76727;SDS011;65652;53.132;18.026;2023-05-29T00:59:51;7.10;;;2.70;;
76727;SDS011;65652;53.132;18.026;2023-05-29T01:02:18;7.70;;;2.40;;
76727;SDS011;65652;53.132;18.026;2023-05-29T01:04:46;7.30;;;2.60;;
76727;SDS011;65652;53.132;18.026;2023-05-29T01:07:14;7.80;;;2.20;;
76727;SDS011;65652;53.132;18.026;2023-05-29T01:09:41;5.60;;;2.20;;
76727;SDS011;65652;53.132;18.026;2023-05-29T01:20:51;5.50;;;2.00;;
76727;SDS011;65652;53.132;18.026;2023-05-29T01:31:56;5.30;;;2.10;;
76727;SDS011;65652;53.132;18.026;2023-05-29T01:34:24;5.20;;;2.20;;
76727;SDS011;65652;53.132;18.026;2023-05-29T01:36:51;7.60;;;2.80;;
76727;SDS011;65652;53.132;18.026;2023-05-29T01:39:18;10.50;;;3.40;;
76727;SDS011;65652;53.132;18.026;2023-05-29T01:41:46;8.40;;;3.00;;
76727;SDS011;65652;53.132;18.026;2023-05-29T01:44:14;6.70;;;2.70;;
76727;SDS011;65652;53.132;18.026;2023-05-29T01:46:43;7.20;;;2.90;;
76727;SDS011;65652;53.132;18.026;2023-05-29T01:49:11;8.10;;;3.00;;
76727;SDS011;65652;53.132;18.026;2023-05-29T01:51:40;7.80;;;2.70;;
76727;SDS011;65652;53.132;18.026;2023-05-29T01:54:07;7.30;;;2.20;;
76727;SDS011;65652;53.132;18.026;2023-05-29T01:56:34;7.90;;;2.60;;
76727;SDS011;65652;53.132;18.026;2023-05-29T01:59:03;6.60;;;2.50;;
76727;SDS011;65652;53.132;18.026;2023-05-29T02:01:31;10.50;;;2.70;;
76727;SDS011;65652;53.132;18.026;2023-05-29T02:06:25;6.80;;;2.50;;
76727;SDS011;65652;53.132;18.026;2023-05-29T02:08:52;6.10;;;2.10;;
76727;SDS011;65652;53.132;18.026;2023-05-29T02:11:19;5.70;;;2.20;;
76727;SDS011;65652;53.132;18.026;2023-05-29T02:13:46;6.60;;;2.50;;
76727;SDS011;65652;53.132;18.026;2023-05-29T02:16:13;6.80;;;2.60;;
76727;SDS011;65652;53.132;18.026;2023-05-29T02:18:41;6.70;;;2.50;;
76727;SDS011;65652;53.132;18.026;2023-05-29T02:21:09;7.90;;;2.50;;
76727;SDS011;65652;53.132;18.026;2023-05-29T02:23:36;6.00;;;2.60;;
76727;SDS011;65652;53.132;18.026;2023-05-29T02:26:03;6.30;;;2.70;;
76727;SDS011;65652;53.132;18.026;2023-05-29T02:28:30;6.20;;;2.60;;
76727;SDS011;65652;53.132;18.026;2023-05-29T02:30:57;7.20;;;3.10;;
76727;SDS011;65652;53.132;18.026;2023-05-29T02:33:24;6.70;;;2.70;;
76727;SDS011;65652;53.132;18.026;2023-05-29T02:35:51;8.60;;;2.60;;
76727;SDS011;65652;53.132;18.026;2023-05-29T02:38:17;6.20;;;2.40;;
76727;SDS011;65652;53.132;18.026;2023-05-29T02:40:45;6.80;;;2.60;;
76727;SDS011;65652;53.132;18.026;2023-05-29T02:43:12;7.40;;;3.10;;
76727;SDS011;65652;53.132;18.026;2023-05-29T02:45:39;7.90;;;3.40;;
76727;SDS011;65652;53.132;18.026;2023-05-29T02:48:06;9.60;;;4.40;;
76727;SDS011;65652;53.132;18.026;2023-05-29T02:50:34;10.00;;;3.90;;
76727;SDS011;65652;53.132;18.026;2023-05-29T02:53:01;9.50;;;3.60;;
76727;SDS011;65652;53.132;18.026;2023-05-29T02:55:28;8.60;;;3.40;;
76727;SDS011;65652;53.132;18.026;2023-05-29T02:57:55;8.90;;;3.40;;
76727;SDS011;65652;53.132;18.026;2023-05-29T03:00:22;10.40;;;3.80;;
76727;SDS011;65652;53.132;18.026;2023-05-29T03:02:49;7.20;;;3.00;;
76727;SDS011;65652;53.132;18.026;2023-05-29T03:05:16;9.50;;;2.90;;
76727;SDS011;65652;53.132;18.026;2023-05-29T03:07:43;6.30;;;2.30;;
76727;SDS011;65652;53.132;18.026;2023-05-29T03:10:11;6.60;;;2.50;;
76727;SDS011;65652;53.132;18.026;2023-05-29T03:12:38;9.20;;;3.40;;
76727;SDS011;65652;53.132;18.026;2023-05-29T03:15:06;6.60;;;2.30;;
76727;SDS011;65652;53.132;18.026;2023-05-29T03:17:34;11.50;;;3.30;;
76727;SDS011;65652;53.132;18.026;2023-05-29T03:20:03;8.40;;;3.30;;
76727;SDS011;65652;53.132;18.026;2023-05-29T03:22:34;7.10;;;2.80;;
76727;SDS011;65652;53.132;18.026;2023-05-29T03:25:02;8.00;;;3.60;;
76727;SDS011;65652;53.132;18.026;2023-05-29T03:30:02;7.40;;;2.60;;
76727;SDS011;65652;53.132;18.026;2023-05-29T03:32:30;8.10;;;2.70;;
76727;SDS011;65652;53.132;18.026;2023-05-29T03:34:58;6.50;;;2.80;;
76727;SDS011;65652;53.132;18.026;2023-05-29T03:37:24;8.90;;;3.00;;
76727;SDS011;65652;53.132;18.026;2023-05-29T03:39:51;5.60;;;2.60;;
76727;SDS011;65652;53.132;18.026;2023-05-29T03:42:19;8.40;;;2.70;;
76727;SDS011;65652;53.132;18.026;2023-05-29T03:44:47;8.10;;;2.80;;
76727;SDS011;65652;53.132;18.026;2023-05-29T03:47:14;8.30;;;3.00;;
76727;SDS011;65652;53.132;18.026;2023-05-29T03:49:41;13.40;;;3.10;;
76727;SDS011;65652;53.132;18.026;2023-05-29T03:52:08;7.40;;;3.00;;
76727;SDS011;65652;53.132;18.026;2023-05-29T03:54:36;8.80;;;3.20;;
76727;SDS011;65652;53.132;18.026;2023-05-29T03:57:03;6.90;;;2.80;;
76727;SDS011;65652;53.132;18.026;2023-05-29T03:59:30;7.80;;;2.90;;
76727;SDS011;65652;53.132;18.026;2023-05-29T04:01:57;7.30;;;2.70;;
76727;SDS011;65652;53.132;18.026;2023-05-29T04:04:24;7.60;;;3.20;;
76727;SDS011;65652;53.132;18.026;2023-05-29T04:06:51;9.60;;;2.80;;
76727;SDS011;65652;53.132;18.026;2023-05-29T04:09:18;7.30;;;3.40;;
76727;SDS011;65652;53.132;18.026;2023-05-29T04:11:45;9.00;;;3.20;;
76727;SDS011;65652;53.132;18.026;2023-05-29T04:14:12;7.30;;;3.00;;
76727;SDS011;65652;53.132;18.026;2023-05-29T04:16:40;7.00;;;2.80;;
76727;SDS011;65652;53.132;18.026;2023-05-29T04:19:07;10.20;;;3.20;;
76727;SDS011;65652;53.132;18.026;2023-05-29T04:21:34;7.40;;;3.00;;
76727;SDS011;65652;53.132;18.026;2023-05-29T04:24:01;7.80;;;3.10;;
76727;SDS011;65652;53.132;18.026;2023-05-29T04:26:28;8.80;;;3.50;;
76727;SDS011;65652;53.132;18.026;2023-05-29T04:28:55;8.00;;;3.00;;
76727;SDS011;65652;53.132;18.026;2023-05-29T04:31:25;9.80;;;3.30;;
76727;SDS011;65652;53.132;18.026;2023-05-29T04:33:53;6.10;;;2.50;;
76727;SDS011;65652;53.132;18.026;2023-05-29T04:36:24;7.40;;;2.90;;
76727;SDS011;65652;53.132;18.026;2023-05-29T04:39:04;7.10;;;3.30;;
76727;SDS011;65652;53.132;18.026;2023-05-29T04:41:32;8.60;;;2.90;;
76727;SDS011;65652;53.132;18.026;2023-05-29T04:43:59;8.30;;;2.80;;
76727;SDS011;65652;53.132;18.026;2023-05-29T04:46:29;7.80;;;2.80;;
76727;SDS011;65652;53.132;18.026;2023-05-29T04:48:56;7.40;;;2.30;;
76727;SDS011;65652;53.132;18.026;2023-05-29T04:51:23;7.30;;;2.90;;
76727;SDS011;65652;53.132;18.026;2023-05-29T04:53:51;8.90;;;3.20;;
76727;SDS011;65652;53.132;18.026;2023-05-29T04:56:18;8.30;;;2.60;;
76727;SDS011;65652;53.132;18.026;2023-05-29T04:58:46;9.10;;;2.60;;
76727;SDS011;65652;53.132;18.026;2023-05-29T05:01:13;7.90;;;2.80;;
76727;SDS011;65652;53.132;18.026;2023-05-29T05:03:41;7.20;;;2.70;;
76727;SDS011;65652;53.132;18.026;2023-05-29T05:06:08;8.50;;;2.70;;
76727;SDS011;65652;53.132;18.026;2023-05-29T05:08:36;8.40;;;3.10;;
76727;SDS011;65652;53.132;18.026;2023-05-29T05:11:04;10.40;;;2.70;;
76727;SDS011;65652;53.132;18.026;2023-05-29T05:13:33;7.70;;;2.90;;
76727;SDS011;65652;53.132;18.026;2023-05-29T05:16:01;9.80;;;3.00;;
76727;SDS011;65652;53.132;18.026;2023-05-29T05:18:28;6.60;;;2.70;;
76727;SDS011;65652;53.132;18.026;2023-05-29T05:20:59;8.50;;;2.90;;
76727;SDS011;65652;53.132;18.026;2023-05-29T05:23:26;8.50;;;2.80;;
76727;SDS011;65652;53.132;18.026;2023-05-29T05:25:53;8.30;;;3.00;;
76727;SDS011;65652;53.132;18.026;2023-05-29T05:28:20;7.00;;;2.70;;
76727;SDS011;65652;53.132;18.026;2023-05-29T05:30:47;7.10;;;2.60;;
76727;SDS011;65652;53.132;18.026;2023-05-29T05:33:14;10.20;;;3.10;;
76727;SDS011;65652;53.132;18.026;2023-05-29T05:35:41;6.90;;;3.00;;
76727;SDS011;65652;53.132;18.026;2023-05-29T05:38:08;7.60;;;2.90;;
76727;SDS011;65652;53.132;18.026;2023-05-29T05:40:35;7.20;;;2.60;;
76727;SDS011;65652;53.132;18.026;2023-05-29T05:43:11;8.30;;;2.70;;
76727;SDS011;65652;53.132;18.026;2023-05-29T05:45:55;9.00;;;2.60;;
76727;SDS011;65652;53.132;18.026;2023-05-29T05:48:22;9.10;;;2.50;;
76727;SDS011;65652;53.132;18.026;2023-05-29T05:50:48;8.80;;;3.10;;
76727;SDS011;65652;53.132;18.026;2023-05-29T05:53:16;6.60;;;2.50;;
76727;SDS011;65652;53.132;18.026;2023-05-29T05:55:43;6.60;;;2.50;;
76727;SDS011;65652;53.132;18.026;2023-05-29T05:58:10;6.50;;;2.30;;
76727;SDS011;65652;53.132;18.026;2023-05-29T06:00:39;7.90;;;2.50;;
76727;SDS011;65652;53.132;18.026;2023-05-29T06:03:06;7.50;;;2.70;;
76727;SDS011;65652;53.132;18.026;2023-05-29T06:05:59;7.10;;;2.20;;
76727;SDS011;65652;53.132;18.026;2023-05-29T06:08:26;13.50;;;3.50;;
76727;SDS011;65652;53.132;18.026;2023-05-29T06:10:53;6.70;;;2.30;;
76727;SDS011;65652;53.132;18.026;2023-05-29T06:13:20;10.70;;;4.00;;
76727;SDS011;65652;53.132;18.026;2023-05-29T06:15:54;6.40;;;2.20;;
76727;SDS011;65652;53.132;18.026;2023-05-29T06:18:20;8.70;;;2.50;;
76727;SDS011;65652;53.132;18.026;2023-05-29T06:20:47;6.80;;;2.30;;
76727;SDS011;65652;53.132;18.026;2023-05-29T06:23:15;6.60;;;2.10;;
76727;SDS011;65652;53.132;18.026;2023-05-29T06:25:42;8.50;;;2.60;;
76727;SDS011;65652;53.132;18.026;2023-05-29T06:28:09;6.10;;;2.30;;
76727;SDS011;65652;53.132;18.026;2023-05-29T06:30:36;6.10;;;2.20;;
76727;SDS011;65652;53.132;18.026;2023-05-29T06:33:06;7.50;;;2.10;;
76727;SDS011;65652;53.132;18.026;2023-05-29T06:35:35;9.00;;;2.20;;
76727;SDS011;65652;53.132;18.026;2023-05-29T06:38:01;12.50;;;2.50;;
76727;SDS011;65652;53.132;18.026;2023-05-29T06:40:29;6.30;;;2.20;;
76727;SDS011;65652;53.132;18.026;2023-05-29T06:42:56;7.00;;;2.40;;
76727;SDS011;65652;53.132;18.026;2023-05-29T06:45:35;7.00;;;2.40;;
76727;SDS011;65652;53.132;18.026;2023-05-29T06:48:02;11.20;;;2.10;;
76727;SDS011;65652;53.132;18.026;2023-05-29T06:50:29;12.10;;;3.30;;
76727;SDS011;65652;53.132;18.026;2023-05-29T06:53:00;9.90;;;2.50;;
76727;SDS011;65652;53.132;18.026;2023-05-29T06:55:30;8.10;;;2.60;;
76727;SDS011;65652;53.132;18.026;2023-05-29T06:57:57;8.40;;;2.30;;
76727;SDS011;65652;53.132;18.026;2023-05-29T07:00:25;6.80;;;2.50;;
76727;SDS011;65652;53.132;18.026;2023-05-29T07:03:15;8.50;;;3.00;;
76727;SDS011;65652;53.132;18.026;2023-05-29T07:05:44;9.40;;;2.80;;
76727;SDS011;65652;53.132;18.026;2023-05-29T07:08:11;9.80;;;3.10;;
76727;SDS011;65652;53.132;18.026;2023-05-29T07:10:38;7.30;;;3.00;;
76727;SDS011;65652;53.132;18.026;2023-05-29T07:13:05;7.00;;;3.00;;
76727;SDS011;65652;53.132;18.026;2023-05-29T07:15:33;8.30;;;3.00;;
76727;SDS011;65652;53.132;18.026;2023-05-29T07:18:00;8.30;;;2.80;;
76727;SDS011;65652;53.132;18.026;2023-05-29T07:20:27;6.70;;;2.50;;
76727;SDS011;65652;53.132;18.026;2023-05-29T07:22:53;5.70;;;2.50;;
76727;SDS011;65652;53.132;18.026;2023-05-29T07:25:21;8.90;;;2.90;;
76727;SDS011;65652;53.132;18.026;2023-05-29T07:27:48;7.70;;;3.00;;
76727;SDS011;65652;53.132;18.026;2023-05-29T07:30:15;7.10;;;2.70;;
76727;SDS011;65652;53.132;18.026;2023-05-29T07:32:43;8.70;;;3.30;;
76727;SDS011;65652;53.132;18.026;2023-05-29T07:37:37;10.20;;;2.90;;
76727;SDS011;65652;53.132;18.026;2023-05-29T07:40:04;6.40;;;2.60;;
76727;SDS011;65652;53.132;18.026;2023-05-29T07:43:04;7.40;;;3.10;;
76727;SDS011;65652;53.132;18.026;2023-05-29T07:45:40;7.50;;;2.50;;
76727;SDS011;65652;53.132;18.026;2023-05-29T07:48:06;9.80;;;3.40;;
76727;SDS011;65652;53.132;18.026;2023-05-29T07:50:33;7.10;;;2.50;;
76727;SDS011;65652;53.132;18.026;2023-05-29T07:53:01;8.10;;;2.80;;
76727;SDS011;65652;53.132;18.026;2023-05-29T07:55:29;8.10;;;2.50;;
76727;SDS011;65652;53.132;18.026;2023-05-29T07:57:56;7.20;;;2.90;;
76727;SDS011;65652;53.132;18.026;2023-05-29T08:00:23;7.30;;;2.60;;
76727;SDS011;65652;53.132;18.026;2023-05-29T08:02:52;5.80;;;2.40;;
76727;SDS011;65652;53.132;18.026;2023-05-29T08:05:25;7.00;;;2.30;;
76727;SDS011;65652;53.132;18.026;2023-05-29T08:07:52;6.80;;;2.40;;
76727;SDS011;65652;53.132;18.026;2023-05-29T08:10:19;8.20;;;2.40;;
76727;SDS011;65652;53.132;18.026;2023-05-29T08:12:46;6.90;;;2.20;;
76727;SDS011;65652;53.132;18.026;2023-05-29T08:15:12;6.00;;;1.70;;
76727;SDS011;65652;53.132;18.026;2023-05-29T08:17:39;6.40;;;1.80;;
76727;SDS011;65652;53.132;18.026;2023-05-29T08:20:06;5.10;;;1.80;;
76727;SDS011;65652;53.132;18.026;2023-05-29T08:22:36;7.70;;;1.90;;
76727;SDS011;65652;53.132;18.026;2023-05-29T08:25:03;5.10;;;1.80;;
76727;SDS011;65652;53.132;18.026;2023-05-29T08:27:30;5.40;;;1.60;;
76727;SDS011;65652;53.132;18.026;2023-05-29T08:29:57;6.70;;;1.80;;
76727;SDS011;65652;53.132;18.026;2023-05-29T08:32:24;5.60;;;2.00;;
76727;SDS011;65652;53.132;18.026;2023-05-29T08:34:51;6.10;;;1.90;;
76727;SDS011;65652;53.132;18.026;2023-05-29T08:37:18;4.50;;;1.80;;
76727;SDS011;65652;53.132;18.026;2023-05-29T08:39:46;5.10;;;1.70;;
76727;SDS011;65652;53.132;18.026;2023-05-29T08:44:46;5.10;;;1.70;;
76727;SDS011;65652;53.132;18.026;2023-05-29T08:47:13;5.90;;;1.50;;
76727;SDS011;65652;53.132;18.026;2023-05-29T08:49:50;6.50;;;1.60;;
76727;SDS011;65652;53.132;18.026;2023-05-29T08:52:22;4.80;;;1.70;;
76727;SDS011;65652;53.132;18.026;2023-05-29T08:54:52;5.30;;;1.70;;
76727;SDS011;65652;53.132;18.026;2023-05-29T08:57:20;6.10;;;1.90;;
76727;SDS011;65652;53.132;18.026;2023-05-29T08:59:49;9.10;;;1.80;;
76727;SDS011;65652;53.132;18.026;2023-05-29T09:02:18;7.40;;;1.70;;
76727;SDS011;65652;53.132;18.026;2023-05-29T09:04:46;6.30;;;1.90;;
76727;SDS011;65652;53.132;18.026;2023-05-29T09:07:16;5.40;;;1.50;;
76727;SDS011;65652;53.132;18.026;2023-05-29T09:09:47;5.20;;;1.70;;
76727;SDS011;65652;53.132;18.026;2023-05-29T09:12:15;5.40;;;1.80;;
76727;SDS011;65652;53.132;18.026;2023-05-29T09:14:43;7.00;;;2.00;;
76727;SDS011;65652;53.132;18.026;2023-05-29T09:17:11;5.50;;;1.80;;
76727;SDS011;65652;53.132;18.026;2023-05-29T09:19:39;7.70;;;2.30;;
76727;SDS011;65652;53.132;18.026;2023-05-29T09:22:13;4.70;;;1.70;;
76727;SDS011;65652;53.132;18.026;2023-05-29T09:24:42;5.30;;;1.80;;
76727;SDS011;65652;53.132;18.026;2023-05-29T09:27:13;4.80;;;1.60;;
76727;SDS011;65652;53.132;18.026;2023-05-29T09:29:41;5.90;;;1.90;;
76727;SDS011;65652;53.132;18.026;2023-05-29T09:32:15;6.40;;;2.20;;
76727;SDS011;65652;53.132;18.026;2023-05-29T09:34:43;5.60;;;1.70;;
76727;SDS011;65652;53.132;18.026;2023-05-29T09:42:10;10.10;;;2.30;;
76727;SDS011;65652;53.132;18.026;2023-05-29T09:44:39;4.70;;;1.50;;
76727;SDS011;65652;53.132;18.026;2023-05-29T09:47:07;5.80;;;1.50;;
76727;SDS011;65652;53.132;18.026;2023-05-29T09:49:34;4.70;;;1.60;;
76727;SDS011;65652;53.132;18.026;2023-05-29T09:52:01;5.30;;;1.90;;
76727;SDS011;65652;53.132;18.026;2023-05-29T09:54:28;3.90;;;1.50;;
76727;SDS011;65652;53.132;18.026;2023-05-29T09:56:57;5.90;;;1.70;;
76727;SDS011;65652;53.132;18.026;2023-05-29T09:59:24;4.50;;;1.60;;
76727;SDS011;65652;53.132;18.026;2023-05-29T10:04:34;5.60;;;1.60;;
76727;SDS011;65652;53.132;18.026;2023-05-29T10:09:35;4.00;;;1.40;;
76727;SDS011;65652;53.132;18.026;2023-05-29T10:12:06;4.70;;;1.90;;
76727;SDS011;65652;53.132;18.026;2023-05-29T10:14:35;5.70;;;1.70;;
76727;SDS011;65652;53.132;18.026;2023-05-29T10:17:03;5.20;;;1.60;;
76727;SDS011;65652;53.132;18.026;2023-05-29T10:19:34;4.40;;;1.50;;
76727;SDS011;65652;53.132;18.026;2023-05-29T10:22:03;4.60;;;1.50;;
76727;SDS011;65652;53.132;18.026;2023-05-29T10:24:33;5.70;;;1.80;;
76727;SDS011;65652;53.132;18.026;2023-05-29T10:27:03;5.50;;;1.80;;
76727;SDS011;65652;53.132;18.026;2023-05-29T10:34:43;5.40;;;2.00;;
76727;SDS011;65652;53.132;18.026;2023-05-29T10:39:53;4.50;;;1.50;;
76727;SDS011;65652;53.132;18.026;2023-05-29T10:42:49;5.00;;;1.80;;
76727;SDS011;65652;53.132;18.026;2023-05-29T10:50:35;5.90;;;1.70;;
76727;SDS011;65652;53.132;18.026;2023-05-29T10:53:15;4.70;;;1.70;;
76727;SDS011;65652;53.132;18.026;2023-05-29T10:55:44;5.90;;;1.80;;
76727;SDS011;65652;53.132;18.026;2023-05-29T10:58:12;5.80;;;1.50;;
76727;SDS011;65652;53.132;18.026;2023-05-29T11:00:41;7.00;;;1.80;;
76727;SDS011;65652;53.132;18.026;2023-05-29T11:03:09;5.60;;;1.70;;
76727;SDS011;65652;53.132;18.026;2023-05-29T11:05:58;7.10;;;1.50;;
76727;SDS011;65652;53.132;18.026;2023-05-29T11:08:29;6.20;;;1.90;;
76727;SDS011;65652;53.132;18.026;2023-05-29T11:11:01;5.10;;;1.40;;
76727;SDS011;65652;53.132;18.026;2023-05-29T11:16:14;8.10;;;2.20;;
76727;SDS011;65652;53.132;18.026;2023-05-29T11:18:47;5.60;;;1.50;;
76727;SDS011;65652;53.132;18.026;2023-05-29T11:21:22;4.90;;;1.40;;
76727;SDS011;65652;53.132;18.026;2023-05-29T11:24:07;5.80;;;1.70;;
76727;SDS011;65652;53.132;18.026;2023-05-29T11:26:44;6.20;;;1.80;;
76727;SDS011;65652;53.132;18.026;2023-05-29T11:29:11;5.30;;;1.70;;
76727;SDS011;65652;53.132;18.026;2023-05-29T11:31:40;4.10;;;1.60;;
76727;SDS011;65652;53.132;18.026;2023-05-29T11:34:09;5.50;;;1.80;;
76727;SDS011;65652;53.132;18.026;2023-05-29T11:36:40;6.30;;;1.60;;
76727;SDS011;65652;53.132;18.026;2023-05-29T11:39:08;5.40;;;1.70;;
76727;SDS011;65652;53.132;18.026;2023-05-29T11:41:36;5.70;;;1.60;;
76727;SDS011;65652;53.132;18.026;2023-05-29T11:44:04;4.30;;;1.50;;
76727;SDS011;65652;53.132;18.026;2023-05-29T11:46:32;5.70;;;1.60;;
76727;SDS011;65652;53.132;18.026;2023-05-29T11:49:00;4.60;;;1.40;;
76727;SDS011;65652;53.132;18.026;2023-05-29T11:51:28;5.10;;;2.00;;
76727;SDS011;65652;53.132;18.026;2023-05-29T11:53:55;7.70;;;1.90;;
76727;SDS011;65652;53.132;18.026;2023-05-29T11:56:25;5.20;;;1.70;;
76727;SDS011;65652;53.132;18.026;2023-05-29T11:58:53;6.20;;;1.40;;
76727;SDS011;65652;53.132;18.026;2023-05-29T12:01:26;4.50;;;1.60;;
76727;SDS011;65652;53.132;18.026;2023-05-29T12:03:54;4.10;;;1.30;;
76727;SDS011;65652;53.132;18.026;2023-05-29T12:06:34;5.30;;;1.60;;
76727;SDS011;65652;53.132;18.026;2023-05-29T12:09:03;4.90;;;1.50;;
76727;SDS011;65652;53.132;18.026;2023-05-29T12:11:31;4.60;;;1.40;;
76727;SDS011;65652;53.132;18.026;2023-05-29T12:14:00;5.60;;;1.50;;
76727;SDS011;65652;53.132;18.026;2023-05-29T12:18:56;4.20;;;1.50;;
76727;SDS011;65652;53.132;18.026;2023-05-29T12:21:23;4.60;;;1.60;;
76727;SDS011;65652;53.132;18.026;2023-05-29T12:26:18;5.50;;;1.50;;
76727;SDS011;65652;53.132;18.026;2023-05-29T12:28:48;4.90;;;1.50;;
76727;SDS011;65652;53.132;18.026;2023-05-29T12:31:26;4.30;;;1.40;;
76727;SDS011;65652;53.132;18.026;2023-05-29T12:34:10;6.60;;;1.50;;
76727;SDS011;65652;53.132;18.026;2023-05-29T12:36:41;4.40;;;1.40;;
76727;SDS011;65652;53.132;18.026;2023-05-29T12:39:09;4.40;;;1.70;;
76727;SDS011;65652;53.132;18.026;2023-05-29T12:41:37;4.10;;;1.30;;
76727;SDS011;65652;53.132;18.026;2023-05-29T12:44:06;5.80;;;1.30;;
76727;SDS011;65652;53.132;18.026;2023-05-29T12:49:15;4.50;;;1.60;;
76727;SDS011;65652;53.132;18.026;2023-05-29T12:51:43;6.60;;;1.40;;
76727;SDS011;65652;53.132;18.026;2023-05-29T12:54:12;3.60;;;1.20;;
76727;SDS011;65652;53.132;18.026;2023-05-29T12:56:39;3.80;;;1.30;;
76727;SDS011;65652;53.132;18.026;2023-05-29T12:59:07;5.30;;;1.50;;
76727;SDS011;65652;53.132;18.026;2023-05-29T13:01:35;5.20;;;1.40;;
76727;SDS011;65652;53.132;18.026;2023-05-29T13:04:05;4.40;;;1.30;;
76727;SDS011;65652;53.132;18.026;2023-05-29T13:06:35;5.40;;;1.30;;
76727;SDS011;65652;53.132;18.026;2023-05-29T13:09:03;5.00;;;1.10;;
76727;SDS011;65652;53.132;18.026;2023-05-29T13:11:31;5.80;;;1.60;;
76727;SDS011;65652;53.132;18.026;2023-05-29T13:13:58;5.10;;;1.60;;
76727;SDS011;65652;53.132;18.026;2023-05-29T13:16:25;6.10;;;1.70;;
76727;SDS011;65652;53.132;18.026;2023-05-29T13:18:52;4.60;;;1.40;;
76727;SDS011;65652;53.132;18.026;2023-05-29T13:21:19;5.10;;;1.50;;
76727;SDS011;65652;53.132;18.026;2023-05-29T13:23:45;4.80;;;1.40;;
76727;SDS011;65652;53.132;18.026;2023-05-29T13:26:12;5.50;;;1.50;;
76727;SDS011;65652;53.132;18.026;2023-05-29T13:28:39;6.40;;;1.60;;
76727;SDS011;65652;53.132;18.026;2023-05-29T13:31:06;5.10;;;1.40;;
76727;SDS011;65652;53.132;18.026;2023-05-29T13:33:33;5.80;;;1.60;;
76727;SDS011;65652;53.132;18.026;2023-05-29T13:36:00;4.90;;;1.60;;
76727;SDS011;65652;53.132;18.026;2023-05-29T13:38:27;3.80;;;1.50;;
76727;SDS011;65652;53.132;18.026;2023-05-29T13:40:53;6.20;;;1.70;;
76727;SDS011;65652;53.132;18.026;2023-05-29T13:43:20;4.90;;;1.40;;
76727;SDS011;65652;53.132;18.026;2023-05-29T13:45:47;4.40;;;1.30;;
76727;SDS011;65652;53.132;18.026;2023-05-29T13:48:14;5.50;;;1.70;;
76727;SDS011;65652;53.132;18.026;2023-05-29T13:50:41;6.80;;;1.70;;
76727;SDS011;65652;53.132;18.026;2023-05-29T13:53:07;4.90;;;1.50;;
76727;SDS011;65652;53.132;18.026;2023-05-29T13:55:34;6.20;;;1.60;;
76727;SDS011;65652;53.132;18.026;2023-05-29T13:58:01;6.70;;;1.50;;
76727;SDS011;65652;53.132;18.026;2023-05-29T14:00:28;5.60;;;1.50;;
76727;SDS011;65652;53.132;18.026;2023-05-29T14:02:55;5.50;;;1.30;;
76727;SDS011;65652;53.132;18.026;2023-05-29T14:05:22;6.00;;;1.60;;
76727;SDS011;65652;53.132;18.026;2023-05-29T14:07:48;5.40;;;1.40;;
76727;SDS011;65652;53.132;18.026;2023-05-29T14:10:15;5.30;;;1.30;;
76727;SDS011;65652;53.132;18.026;2023-05-29T14:12:42;6.00;;;1.40;;
76727;SDS011;65652;53.132;18.026;2023-05-29T14:15:09;4.90;;;1.40;;
76727;SDS011;65652;53.132;18.026;2023-05-29T14:17:36;7.30;;;1.70;;
76727;SDS011;65652;53.132;18.026;2023-05-29T14:20:03;5.20;;;1.40;;
76727;SDS011;65652;53.132;18.026;2023-05-29T14:24:58;7.50;;;1.70;;
76727;SDS011;65652;53.132;18.026;2023-05-29T14:27:26;5.60;;;2.00;;
76727;SDS011;65652;53.132;18.026;2023-05-29T14:29:53;5.90;;;1.70;;
76727;SDS011;65652;53.132;18.026;2023-05-29T14:32:20;6.30;;;2.00;;
76727;SDS011;65652;53.132;18.026;2023-05-29T14:34:47;4.00;;;1.40;;
76727;SDS011;65652;53.132;18.026;2023-05-29T14:37:14;6.60;;;1.70;;
76727;SDS011;65652;53.132;18.026;2023-05-29T14:39:41;6.10;;;1.60;;
76727;SDS011;65652;53.132;18.026;2023-05-29T14:42:08;5.40;;;1.60;;
76727;SDS011;65652;53.132;18.026;2023-05-29T14:44:35;4.60;;;1.30;;
76727;SDS011;65652;53.132;18.026;2023-05-29T14:47:02;5.30;;;1.30;;
76727;SDS011;65652;53.132;18.026;2023-05-29T14:49:29;6.60;;;1.60;;
76727;SDS011;65652;53.132;18.026;2023-05-29T14:51:58;10.00;;;1.90;;
76727;SDS011;65652;53.132;18.026;2023-05-29T14:54:25;6.20;;;1.50;;
76727;SDS011;65652;53.132;18.026;2023-05-29T14:56:54;6.80;;;2.00;;
76727;SDS011;65652;53.132;18.026;2023-05-29T14:59:21;5.20;;;1.70;;
76727;SDS011;65652;53.132;18.026;2023-05-29T15:01:47;5.10;;;1.60;;
76727;SDS011;65652;53.132;18.026;2023-05-29T15:04:15;5.90;;;1.50;;
76727;SDS011;65652;53.132;18.026;2023-05-29T15:06:43;6.60;;;1.40;;
76727;SDS011;65652;53.132;18.026;2023-05-29T15:09:11;6.00;;;1.70;;
76727;SDS011;65652;53.132;18.026;2023-05-29T15:11:38;6.20;;;1.70;;
76727;SDS011;65652;53.132;18.026;2023-05-29T15:14:05;5.20;;;1.70;;
76727;SDS011;65652;53.132;18.026;2023-05-29T15:16:32;6.10;;;1.40;;
76727;SDS011;65652;53.132;18.026;2023-05-29T15:21:26;4.50;;;1.20;;
76727;SDS011;65652;53.132;18.026;2023-05-29T15:23:53;5.60;;;1.30;;
76727;SDS011;65652;53.132;18.026;2023-05-29T15:26:20;4.70;;;1.40;;
76727;SDS011;65652;53.132;18.026;2023-05-29T15:28:47;5.80;;;1.30;;
76727;SDS011;65652;53.132;18.026;2023-05-29T15:31:14;4.80;;;1.40;;
76727;SDS011;65652;53.132;18.026;2023-05-29T15:33:41;5.50;;;1.50;;
76727;SDS011;65652;53.132;18.026;2023-05-29T15:36:08;5.60;;;1.50;;
76727;SDS011;65652;53.132;18.026;2023-05-29T15:38:35;5.70;;;1.40;;
76727;SDS011;65652;53.132;18.026;2023-05-29T15:41:02;5.60;;;1.70;;
76727;SDS011;65652;53.132;18.026;2023-05-29T15:43:29;5.00;;;1.40;;
76727;SDS011;65652;53.132;18.026;2023-05-29T15:45:57;4.40;;;1.30;;